createdAt,value
2023-12-23T00:01:44.219Z,5.12
2023-12-23T00:06:40.770Z,5.04
2023-12-23T00:11:37.701Z,4.98
2023-12-23T00:16:34.117Z,4.94
2023-12-23T00:21:30.544Z,5.01
2023-12-23T00:26:26.982Z,4.93
2023-12-23T00:31:23.893Z,4.92
2023-12-23T00:36:20.296Z,4.93
2023-12-23T00:41:16.793Z,4.84
2023-12-23T00:46:13.245Z,4.85
2023-12-23T00:51:10.388Z,4.84
2023-12-23T00:56:07.350Z,4.80
2023-12-23T01:01:04.101Z,4.80
2023-12-23T01:06:00.569Z,4.79
2023-12-23T01:10:57.530Z,4.76
2023-12-23T01:15:54.334Z,4.76
2023-12-23T01:20:50.713Z,4.76
2023-12-23T01:25:47.268Z,4.81
2023-12-23T01:30:43.791Z,4.82
2023-12-23T01:35:40.578Z,4.75
2023-12-23T01:40:37.130Z,4.76
2023-12-23T01:45:36.440Z,4.78
2023-12-23T01:50:33.423Z,4.72
2023-12-23T01:55:32.548Z,4.74
2023-12-23T02:00:29.045Z,4.76
2023-12-23T02:05:25.654Z,4.76
2023-12-23T02:10:22.347Z,4.76
2023-12-23T02:15:21.809Z,4.75
2023-12-23T02:20:18.273Z,4.85
2023-12-23T02:25:14.733Z,4.88
2023-12-23T02:30:14.121Z,4.86
2023-12-23T02:35:12.512Z,4.89
2023-12-23T02:40:09.645Z,4.92
2023-12-23T02:45:06.789Z,4.93
2023-12-23T02:50:03.601Z,4.98
2023-12-23T02:55:00.051Z,4.95
2023-12-23T02:59:56.603Z,4.99
2023-12-23T03:04:53.092Z,4.96
2023-12-23T03:09:49.544Z,4.94
2023-12-23T03:14:46.101Z,4.92
2023-12-23T03:19:43.340Z,4.96
2023-12-23T03:24:39.773Z,4.96
2023-12-23T03:29:36.155Z,4.95
2023-12-23T03:34:32.531Z,4.94
2023-12-23T03:39:28.980Z,4.89
2023-12-23T03:44:25.385Z,4.74
2023-12-23T03:49:22.232Z,4.52
2023-12-23T03:54:18.686Z,4.34
2023-12-23T03:59:15.075Z,4.17
2023-12-23T04:04:11.617Z,4.09
2023-12-23T04:09:08.200Z,4.03
2023-12-23T04:14:04.827Z,4.00
2023-12-23T04:19:01.429Z,3.93
2023-12-23T04:23:59.859Z,3.88
2023-12-23T04:28:56.338Z,3.83
2023-12-23T04:33:52.876Z,3.81
2023-12-23T04:38:49.459Z,3.80
2023-12-23T04:43:46.014Z,3.81
2023-12-23T04:48:42.466Z,3.80
2023-12-23T04:53:38.960Z,3.80
2023-12-23T04:58:36.415Z,3.78
2023-12-23T05:03:35.215Z,3.79
2023-12-23T05:08:31.596Z,3.79
2023-12-23T05:13:28.012Z,3.79
2023-12-23T05:18:24.461Z,3.79
2023-12-23T05:23:20.914Z,3.80
2023-12-23T05:28:17.729Z,3.83
2023-12-23T05:33:14.289Z,3.81
2023-12-23T05:38:11.020Z,3.94
2023-12-23T05:43:07.511Z,4.02
2023-12-23T05:48:04.097Z,4.05
2023-12-23T05:53:00.531Z,3.98
2023-12-23T05:57:57.018Z,4.02
2023-12-23T06:02:53.709Z,4.03
2023-12-23T06:07:50.379Z,4.01
2023-12-23T06:12:47.535Z,4.13
2023-12-23T06:17:44.339Z,3.96
2023-12-23T06:22:40.858Z,4.08
2023-12-23T06:27:37.437Z,4.09
2023-12-23T06:32:34.026Z,4.07
2023-12-23T06:37:30.548Z,4.08
2023-12-23T06:42:27.126Z,4.11
2023-12-23T06:47:23.558Z,4.13
2023-12-23T06:52:19.964Z,4.28
2023-12-23T06:57:16.336Z,4.56
2023-12-23T07:02:13.583Z,5.07
2023-12-23T07:07:11.314Z,5.42
2023-12-23T07:12:09.366Z,6.07
2023-12-23T07:17:05.752Z,6.60
2023-12-23T07:22:02.184Z,6.75
2023-12-23T07:26:59.162Z,6.91
2023-12-23T07:31:55.541Z,7.02
2023-12-23T07:36:51.905Z,7.10
2023-12-23T07:41:48.660Z,7.15
2023-12-23T07:46:45.076Z,7.17
2023-12-23T07:51:41.641Z,7.22
2023-12-23T07:56:38.016Z,7.27
2023-12-23T08:01:34.827Z,7.29
2023-12-23T08:06:31.237Z,7.30
2023-12-23T08:11:27.899Z,7.30
2023-12-23T08:16:24.437Z,7.34
2023-12-23T08:21:20.870Z,7.37
2023-12-23T08:26:17.390Z,7.35
2023-12-23T08:31:14.018Z,7.36
2023-12-23T08:36:10.456Z,7.41
2023-12-23T08:41:06.986Z,7.48
2023-12-23T08:46:03.358Z,7.49
2023-12-23T08:50:59.746Z,7.51
2023-12-23T08:55:56.179Z,7.52
2023-12-23T09:00:53.263Z,7.55
2023-12-23T09:05:49.928Z,7.58
2023-12-23T09:10:46.528Z,7.60
2023-12-23T09:15:42.977Z,7.66
2023-12-23T09:20:39.420Z,7.68
2023-12-23T09:25:35.839Z,7.70
2023-12-23T09:30:32.388Z,7.72
2023-12-23T09:35:28.924Z,7.74
2023-12-23T09:40:25.490Z,7.74
2023-12-23T09:45:22.429Z,7.73
2023-12-23T09:50:18.936Z,7.74
2023-12-23T09:55:18.006Z,7.79
2023-12-23T10:00:15.294Z,7.82
2023-12-23T10:05:11.729Z,7.86
2023-12-23T10:10:08.461Z,7.82
2023-12-23T10:15:05.596Z,7.82
2023-12-23T10:20:02.354Z,7.83
2023-12-23T10:24:58.852Z,7.86
2023-12-23T10:29:58.233Z,7.82
2023-12-23T10:35:01.990Z,7.88
2023-12-23T10:40:17.294Z,7.84
2023-12-23T10:45:14.016Z,7.87
2023-12-23T10:50:11.059Z,7.86
2023-12-23T10:55:10.352Z,7.84
2023-12-23T11:00:07.458Z,7.83
2023-12-23T11:05:07.877Z,7.86
2023-12-23T11:10:05.639Z,7.83
2023-12-23T11:15:02.069Z,7.83
2023-12-23T11:20:04.224Z,7.84
2023-12-23T11:25:00.620Z,7.83
2023-12-23T11:30:01.431Z,7.81
2023-12-23T11:34:59.379Z,7.81
2023-12-23T11:40:00.739Z,7.80
2023-12-23T11:44:57.149Z,7.81
2023-12-23T11:49:53.987Z,7.80
2023-12-23T11:54:51.141Z,7.79
2023-12-23T11:59:49.586Z,7.77
2023-12-23T12:04:47.620Z,7.74
2023-12-23T12:09:44.290Z,7.72
2023-12-23T12:14:41.626Z,7.75
2023-12-23T12:19:38.027Z,7.75
2023-12-23T12:24:35.390Z,7.73
2023-12-23T12:29:31.889Z,7.73
2023-12-23T12:34:29.447Z,7.75
2023-12-23T12:39:26.956Z,7.77
2023-12-23T12:44:23.455Z,7.79
2023-12-23T12:49:23.855Z,7.78
2023-12-23T12:54:22.446Z,7.77
2023-12-23T12:59:19.163Z,7.78
2023-12-23T13:04:15.617Z,7.77
2023-12-23T13:09:12.009Z,7.75
2023-12-23T13:14:08.454Z,7.73
2023-12-23T13:19:04.899Z,7.71
2023-12-23T13:24:02.423Z,7.72
2023-12-23T13:28:58.855Z,7.73
2023-12-23T13:33:55.231Z,7.71
2023-12-23T13:38:51.660Z,7.72
2023-12-23T13:43:48.222Z,7.72
2023-12-23T13:48:45.029Z,7.70
2023-12-23T13:53:41.692Z,7.70
2023-12-23T13:58:38.289Z,7.69
2023-12-23T14:03:35.126Z,7.70
2023-12-23T14:08:31.533Z,7.66
2023-12-23T14:13:28.905Z,7.66
2023-12-23T14:18:25.481Z,7.65
2023-12-23T14:23:22.250Z,7.65
2023-12-23T14:28:19.051Z,7.66
2023-12-23T14:33:15.596Z,7.64
2023-12-23T14:38:12.077Z,7.62
2023-12-23T14:43:08.550Z,7.62
2023-12-23T14:48:05.468Z,7.60
2023-12-23T14:53:02.014Z,7.58
2023-12-23T14:57:58.558Z,7.58
2023-12-23T15:02:54.905Z,7.59
2023-12-23T15:07:51.343Z,7.57
2023-12-23T15:12:47.864Z,7.53
2023-12-23T15:17:44.779Z,7.53
2023-12-23T15:22:41.250Z,7.51
2023-12-23T15:27:37.609Z,7.50
2023-12-23T15:32:34.157Z,7.51
2023-12-23T15:37:30.669Z,7.50
2023-12-23T15:42:27.152Z,7.48
2023-12-23T15:47:24.039Z,7.48
2023-12-23T15:52:20.508Z,7.47
2023-12-23T15:57:16.966Z,7.46
2023-12-23T16:02:13.443Z,7.45
2023-12-23T16:07:11.461Z,7.45
2023-12-23T16:12:08.288Z,7.43
2023-12-23T16:17:04.826Z,7.40
2023-12-23T16:22:01.227Z,7.38
2023-12-23T16:26:58.181Z,7.35
2023-12-23T16:31:55.714Z,7.32
2023-12-23T16:36:52.270Z,7.32
2023-12-23T16:41:48.661Z,7.30
2023-12-23T16:46:45.093Z,7.29
2023-12-23T16:51:41.583Z,7.26
2023-12-23T16:56:39.087Z,7.25
2023-12-23T17:01:35.724Z,7.24
2023-12-23T17:06:32.199Z,7.23
2023-12-23T17:11:28.656Z,7.22
2023-12-23T17:16:25.105Z,7.21
2023-12-23T17:21:21.781Z,7.21
2023-12-23T17:26:18.218Z,7.21
2023-12-23T17:31:14.789Z,7.22
2023-12-23T17:36:11.942Z,7.22
2023-12-23T17:41:08.554Z,7.24
2023-12-23T17:46:06.044Z,7.25
2023-12-23T17:51:02.433Z,7.25
2023-12-23T17:56:04.134Z,7.27
2023-12-23T18:01:00.666Z,7.27
2023-12-23T18:05:57.295Z,7.29
2023-12-23T18:10:53.703Z,7.26
2023-12-23T18:15:50.244Z,7.31
2023-12-23T18:20:46.933Z,7.31
2023-12-23T18:25:44.745Z,7.30
2023-12-23T18:30:42.185Z,7.31
2023-12-23T18:35:38.686Z,7.33
2023-12-23T18:40:37.827Z,7.33
2023-12-23T18:45:36.084Z,7.35
2023-12-23T18:50:36.494Z,7.37
2023-12-23T18:55:34.117Z,7.38
2023-12-23T19:00:30.579Z,7.40
2023-12-23T19:05:27.880Z,7.40
2023-12-23T19:10:24.367Z,7.40
2023-12-23T19:15:20.782Z,7.38
2023-12-23T19:20:17.217Z,7.38
2023-12-23T19:25:13.765Z,7.38
2023-12-23T19:30:10.628Z,7.39
2023-12-23T19:35:08.526Z,7.39
2023-12-23T19:40:10.049Z,7.41
2023-12-23T19:45:07.914Z,7.40
2023-12-23T19:50:04.790Z,7.42
2023-12-23T19:55:01.195Z,7.41
2023-12-23T19:59:57.651Z,7.40
2023-12-23T20:04:54.027Z,7.40
2023-12-23T20:09:50.428Z,7.40
2023-12-23T20:14:46.933Z,7.39
2023-12-23T20:19:43.379Z,7.41
2023-12-23T20:24:39.724Z,7.43
2023-12-23T20:29:36.498Z,7.42
2023-12-23T20:34:33.008Z,7.44
2023-12-23T20:39:29.676Z,7.46
2023-12-23T20:44:26.181Z,7.46
2023-12-23T20:49:22.717Z,7.45
2023-12-23T20:54:19.197Z,7.44
2023-12-23T20:59:15.743Z,7.44
2023-12-23T21:04:12.184Z,7.44
2023-12-23T21:09:09.237Z,7.44
2023-12-23T21:14:05.696Z,7.44
2023-12-23T21:19:02.231Z,7.44
2023-12-23T21:24:04.614Z,7.43
2023-12-23T21:29:01.125Z,7.42
2023-12-23T21:33:57.661Z,7.41
2023-12-23T21:38:54.498Z,7.40
2023-12-23T21:43:50.925Z,7.37
2023-12-23T21:48:47.443Z,7.37
2023-12-23T21:53:43.962Z,7.37
2023-12-23T21:58:41.778Z,7.35
2023-12-23T22:03:38.162Z,7.32
2023-12-23T22:08:34.731Z,7.33
2023-12-23T22:13:31.158Z,7.36
2023-12-23T22:18:27.616Z,7.34
2023-12-23T22:23:24.079Z,7.33
2023-12-23T22:28:20.465Z,7.32
2023-12-23T22:33:17.047Z,7.33
2023-12-23T22:38:13.590Z,7.35
2023-12-23T22:43:09.992Z,7.35
2023-12-23T22:48:06.643Z,7.40
2023-12-23T22:53:03.156Z,7.40
2023-12-23T22:57:59.893Z,7.36
2023-12-23T23:02:57.368Z,7.40
2023-12-23T23:07:54.083Z,7.39
2023-12-23T23:12:51.971Z,7.42
2023-12-23T23:17:48.893Z,7.45
2023-12-23T23:22:45.576Z,7.54
2023-12-23T23:27:42.030Z,7.56
2023-12-23T23:32:38.781Z,7.57
2023-12-23T23:37:35.235Z,7.57
2023-12-23T23:42:31.662Z,7.55
2023-12-23T23:47:28.210Z,7.56
2023-12-23T23:52:24.617Z,7.56
2023-12-23T23:57:20.974Z,7.56
